SJO832 RJCC-RJAA
Flight info
| Callsign | SJO832 |
|---|---|
| Flight time | 1h 18m |
| Altitude | 32000 |
| Route | TOBBY Y10 LARCH Y302 JUGEM Y30 SWAMP |
| Aircraft | B738/M-SDE2E3FGHIRWXY/LB1 |
Departure
| Time | 2026-02-17 11:14 |
|---|---|
| Airport | New Chitose Airport (RJCC) |
Arrival
| Time | 2026-02-17 12:32 |
|---|---|
| Airport | Narita International Airport (RJAA) |
| Time | Latitude | Longitude | Altitude | Speed | Heading |
|---|---|---|---|---|---|
| 2026-02-17 11:04 | 42.79038 | 141.67826 | 67 ft | 0 kts | 172° |
| 2026-02-17 11:09 | 42.79041 | 141.67825 | 60 ft | 2 kts | 173° |
| 2026-02-17 11:09 | 42.79057 | 141.67821 | 67 ft | 2 kts | 170° |
| 2026-02-17 11:09 | 42.79073 | 141.67817 | 67 ft | 2 kts | 167° |
| 2026-02-17 11:09 | 42.79089 | 141.67811 | 60 ft | 2 kts | 162° |
| 2026-02-17 11:10 | 42.79104 | 141.67803 | 58 ft | 2 kts | 152° |
| 2026-02-17 11:10 | 42.79118 | 141.67791 | 66 ft | 2 kts | 130° |
| 2026-02-17 11:10 | 42.79125 | 141.67771 | 63 ft | 2 kts | 95° |
| 2026-02-17 11:11 | 42.79125 | 141.67755 | 67 ft | 1 kts | 82° |
| 2026-02-17 11:11 | 42.79126 | 141.67759 | 67 ft | 0 kts | 81° |
| 2026-02-17 11:11 | 42.79127 | 141.67771 | 58 ft | 8 kts | 81° |
| 2026-02-17 11:11 | 42.79167 | 141.67866 | 65 ft | 14 kts | 25° |
| 2026-02-17 11:12 | 42.79262 | 141.67933 | 65 ft | 18 kts | 68° |
| 2026-02-17 11:12 | 42.79239 | 141.68117 | 61 ft | 22 kts | 110° |
| 2026-02-17 11:12 | 42.79161 | 141.68312 | 65 ft | 25 kts | 128° |
| 2026-02-17 11:12 | 42.79029 | 141.68478 | 63 ft | 23 kts | 149° |
| 2026-02-17 11:13 | 42.78944 | 141.68621 | 66 ft | 23 kts | 78° |
| 2026-02-17 11:13 | 42.78880 | 141.68764 | 61 ft | 19 kts | 138° |
| 2026-02-17 11:13 | 42.78782 | 141.68827 | 65 ft | 17 kts | 178° |
| 2026-02-17 11:13 | 42.78535 | 141.68866 | 63 ft | 68 kts | 172° |
| 2026-02-17 11:14 | 42.77846 | 141.68987 | 63 ft | 130 kts | 172° |
| 2026-02-17 11:14 | 42.76826 | 141.69160 | 366 ft | 153 kts | 172° |
| 2026-02-17 11:14 | 42.75774 | 141.69387 | 1093 ft | 156 kts | 171° |
| 2026-02-17 11:15 | 42.73411 | 141.69878 | 2193 ft | 186 kts | 172° |
| 2026-02-17 11:15 | 42.72071 | 141.70150 | 2676 ft | 202 kts | 173° |
| 2026-02-17 11:15 | 42.70617 | 141.70435 | 3191 ft | 220 kts | 174° |
| 2026-02-17 11:15 | 42.69062 | 141.70736 | 3836 ft | 237 kts | 175° |
| 2026-02-17 11:16 | 42.67379 | 141.71064 | 4472 ft | 252 kts | 175° |
| 2026-02-17 11:16 | 42.65619 | 141.71417 | 5278 ft | 258 kts | 175° |
| 2026-02-17 11:16 | 42.63826 | 141.71780 | 6108 ft | 262 kts | 176° |
| 2026-02-17 11:16 | 42.62012 | 141.72063 | 6947 ft | 263 kts | 182° |
| 2026-02-17 11:17 | 42.60177 | 141.72179 | 7745 ft | 266 kts | 182° |
| 2026-02-17 11:17 | 42.58313 | 141.72282 | 8502 ft | 270 kts | 182° |
| 2026-02-17 11:17 | 42.56419 | 141.72384 | 9231 ft | 275 kts | 182° |
| 2026-02-17 11:17 | 42.54495 | 141.72489 | 10023 ft | 278 kts | 182° |
| 2026-02-17 11:18 | 42.52519 | 141.72594 | 10529 ft | 293 kts | 182° |
| 2026-02-17 11:18 | 42.50431 | 141.72707 | 10933 ft | 308 kts | 181° |
| 2026-02-17 11:18 | 42.48187 | 141.72831 | 10989 ft | 336 kts | 181° |
| 2026-02-17 11:19 | 42.43160 | 141.73114 | 10996 ft | 384 kts | 181° |
| 2026-02-17 11:19 | 42.40493 | 141.73271 | 10991 ft | 380 kts | 181° |
| 2026-02-17 11:19 | 42.37871 | 141.73430 | 11004 ft | 376 kts | 181° |
| 2026-02-17 11:19 | 42.35254 | 141.73580 | 11005 ft | 377 kts | 181° |
| 2026-02-17 11:20 | 42.32631 | 141.73722 | 11003 ft | 377 kts | 181° |
| 2026-02-17 11:20 | 42.30006 | 141.73860 | 11005 ft | 377 kts | 181° |
| 2026-02-17 11:20 | 42.27384 | 141.74004 | 11004 ft | 378 kts | 181° |
| 2026-02-17 11:20 | 42.24758 | 141.74154 | 11004 ft | 377 kts | 181° |
| 2026-02-17 11:21 | 42.22145 | 141.74301 | 11571 ft | 379 kts | 181° |
| 2026-02-17 11:21 | 42.19489 | 141.74450 | 12237 ft | 383 kts | 181° |
| 2026-02-17 11:21 | 42.16815 | 141.74600 | 12875 ft | 386 kts | 181° |
| 2026-02-17 11:21 | 42.14121 | 141.74747 | 13511 ft | 389 kts | 181° |
| 2026-02-17 11:22 | 42.11408 | 141.74895 | 14105 ft | 392 kts | 181° |
| 2026-02-17 11:22 | 42.08669 | 141.75051 | 14716 ft | 394 kts | 181° |
| 2026-02-17 11:22 | 42.05916 | 141.75209 | 15283 ft | 397 kts | 181° |
| 2026-02-17 11:23 | 42.00349 | 141.75527 | 16389 ft | 402 kts | 181° |
| 2026-02-17 11:23 | 41.97541 | 141.75684 | 16938 ft | 405 kts | 181° |
| 2026-02-17 11:23 | 41.94709 | 141.75841 | 17457 ft | 408 kts | 181° |
| 2026-02-17 11:23 | 41.91866 | 141.75998 | 17957 ft | 410 kts | 181° |
| 2026-02-17 11:24 | 41.89007 | 141.76197 | 18421 ft | 413 kts | 180° |
| 2026-02-17 11:24 | 41.86132 | 141.76480 | 18857 ft | 416 kts | 179° |
| 2026-02-17 11:24 | 41.83233 | 141.76798 | 19290 ft | 419 kts | 179° |
| 2026-02-17 11:24 | 41.80315 | 141.77101 | 19725 ft | 421 kts | 179° |
| 2026-02-17 11:25 | 41.77386 | 141.77373 | 20147 ft | 423 kts | 180° |
| 2026-02-17 11:25 | 41.74437 | 141.77627 | 20531 ft | 426 kts | 180° |
| 2026-02-17 11:25 | 41.71473 | 141.77888 | 20903 ft | 428 kts | 179° |
| 2026-02-17 11:25 | 41.68499 | 141.78165 | 21250 ft | 430 kts | 179° |
| 2026-02-17 11:26 | 41.65506 | 141.78449 | 21593 ft | 433 kts | 179° |
| 2026-02-17 11:26 | 41.62494 | 141.78732 | 21930 ft | 435 kts | 179° |
| 2026-02-17 11:26 | 41.59471 | 141.79011 | 22269 ft | 437 kts | 179° |
| 2026-02-17 11:27 | 41.53370 | 141.79569 | 22876 ft | 441 kts | 179° |
| 2026-02-17 11:27 | 41.50303 | 141.79710 | 23168 ft | 441 kts | 186° |
| 2026-02-17 11:27 | 41.47262 | 141.79284 | 23481 ft | 440 kts | 191° |
| 2026-02-17 11:27 | 41.44225 | 141.78731 | 23769 ft | 441 kts | 191° |
| 2026-02-17 11:28 | 41.41180 | 141.78152 | 24046 ft | 443 kts | 191° |
| 2026-02-17 11:28 | 41.38156 | 141.77569 | 24313 ft | 445 kts | 192° |
| 2026-02-17 11:28 | 41.35083 | 141.76985 | 24578 ft | 447 kts | 192° |
| 2026-02-17 11:28 | 41.31996 | 141.76409 | 24830 ft | 449 kts | 191° |
| 2026-02-17 11:29 | 41.28892 | 141.75835 | 25086 ft | 450 kts | 192° |
| 2026-02-17 11:29 | 41.25776 | 141.75258 | 25326 ft | 452 kts | 192° |
| 2026-02-17 11:29 | 41.22655 | 141.74676 | 25572 ft | 454 kts | 192° |
| 2026-02-17 11:29 | 41.19529 | 141.74092 | 25854 ft | 454 kts | 192° |
| 2026-02-17 11:30 | 41.16400 | 141.73509 | 26144 ft | 454 kts | 192° |
| 2026-02-17 11:30 | 41.13271 | 141.72929 | 26433 ft | 453 kts | 192° |
| 2026-02-17 11:30 | 41.10148 | 141.72350 | 26722 ft | 453 kts | 192° |
| 2026-02-17 11:31 | 41.03913 | 141.71194 | 27328 ft | 452 kts | 192° |
| 2026-02-17 11:31 | 41.00805 | 141.70620 | 27629 ft | 451 kts | 193° |
| 2026-02-17 11:31 | 40.97695 | 141.70044 | 27926 ft | 450 kts | 193° |
| 2026-02-17 11:31 | 40.94600 | 141.69470 | 28208 ft | 449 kts | 193° |
| 2026-02-17 11:32 | 40.91496 | 141.68896 | 28488 ft | 449 kts | 193° |
| 2026-02-17 11:32 | 40.88403 | 141.68327 | 28769 ft | 448 kts | 193° |
| 2026-02-17 11:32 | 40.85317 | 141.67761 | 29064 ft | 448 kts | 193° |
| 2026-02-17 11:32 | 40.82227 | 141.67194 | 29354 ft | 447 kts | 193° |
| 2026-02-17 11:33 | 40.79148 | 141.66628 | 29625 ft | 447 kts | 193° |
| 2026-02-17 11:33 | 40.76081 | 141.66063 | 29951 ft | 445 kts | 193° |
| 2026-02-17 11:33 | 40.73012 | 141.65499 | 30212 ft | 444 kts | 193° |
| 2026-02-17 11:33 | 40.69994 | 141.64946 | 30461 ft | 444 kts | 194° |
| 2026-02-17 11:34 | 40.66936 | 141.64386 | 30719 ft | 443 kts | 194° |
| 2026-02-17 11:34 | 40.63881 | 141.63826 | 30976 ft | 443 kts | 194° |
| 2026-02-17 11:34 | 40.60830 | 141.63267 | 31229 ft | 442 kts | 194° |
| 2026-02-17 11:35 | 40.54737 | 141.62155 | 31721 ft | 441 kts | 194° |
| 2026-02-17 11:35 | 40.51692 | 141.61600 | 31964 ft | 441 kts | 194° |
| 2026-02-17 11:35 | 40.48649 | 141.61046 | 32131 ft | 442 kts | 194° |
| 2026-02-17 11:36 | 40.42536 | 141.59933 | 32152 ft | 443 kts | 194° |
| 2026-02-17 11:36 | 40.36434 | 141.58829 | 32129 ft | 440 kts | 194° |
| 2026-02-17 11:37 | 40.30378 | 141.57729 | 32132 ft | 438 kts | 194° |
| 2026-02-17 11:37 | 40.24324 | 141.56629 | 32141 ft | 440 kts | 194° |
| 2026-02-17 11:38 | 40.18236 | 141.55531 | 32144 ft | 441 kts | 194° |
| 2026-02-17 11:38 | 40.12162 | 141.54438 | 32144 ft | 440 kts | 194° |
| 2026-02-17 11:39 | 40.03112 | 141.52809 | 32101 ft | 439 kts | 194° |
| 2026-02-17 11:39 | 39.97075 | 141.51728 | 32150 ft | 438 kts | 195° |
| 2026-02-17 11:40 | 39.91024 | 141.50638 | 32166 ft | 439 kts | 195° |
| 2026-02-17 11:40 | 39.84972 | 141.49558 | 32162 ft | 439 kts | 195° |
| 2026-02-17 11:41 | 39.78914 | 141.48476 | 32166 ft | 440 kts | 195° |
| 2026-02-17 11:41 | 39.72848 | 141.47394 | 32136 ft | 439 kts | 195° |
| 2026-02-17 11:42 | 39.66805 | 141.46323 | 32168 ft | 437 kts | 195° |
| 2026-02-17 11:43 | 39.57752 | 141.44712 | 32062 ft | 437 kts | 195° |
| 2026-02-17 11:43 | 39.51774 | 141.43653 | 32171 ft | 436 kts | 195° |
| 2026-02-17 11:44 | 39.45731 | 141.42583 | 32182 ft | 439 kts | 195° |
| 2026-02-17 11:44 | 39.39667 | 141.41516 | 32178 ft | 439 kts | 195° |
| 2026-02-17 11:45 | 39.33620 | 141.40453 | 32168 ft | 437 kts | 195° |
| 2026-02-17 11:45 | 39.27596 | 141.39394 | 32165 ft | 437 kts | 195° |
| 2026-02-17 11:46 | 39.21564 | 141.38334 | 32152 ft | 436 kts | 196° |
| 2026-02-17 11:46 | 39.16565 | 141.37462 | 32164 ft | 435 kts | 195° |
| 2026-02-17 11:47 | 39.10552 | 141.36410 | 32031 ft | 436 kts | 196° |
| 2026-02-17 11:47 | 39.07556 | 141.35888 | 32079 ft | 435 kts | 196° |
| 2026-02-17 11:47 | 39.01564 | 141.34841 | 32129 ft | 435 kts | 196° |
| 2026-02-17 11:48 | 38.95555 | 141.33794 | 32154 ft | 437 kts | 196° |
| 2026-02-17 11:48 | 38.89523 | 141.32748 | 32158 ft | 436 kts | 196° |
| 2026-02-17 11:49 | 38.83509 | 141.31706 | 32156 ft | 435 kts | 196° |
| 2026-02-17 11:49 | 38.77520 | 141.30668 | 32164 ft | 435 kts | 197° |
| 2026-02-17 11:50 | 38.71526 | 141.29631 | 32184 ft | 435 kts | 197° |
| 2026-02-17 11:51 | 38.62523 | 141.28079 | 32163 ft | 434 kts | 197° |
| 2026-02-17 11:51 | 38.56549 | 141.27051 | 32169 ft | 432 kts | 197° |
| 2026-02-17 11:52 | 38.50579 | 141.26026 | 32170 ft | 433 kts | 197° |
| 2026-02-17 11:52 | 38.44592 | 141.24995 | 32167 ft | 435 kts | 197° |
| 2026-02-17 11:53 | 38.38628 | 141.23974 | 32167 ft | 435 kts | 197° |
| 2026-02-17 11:53 | 38.32632 | 141.22952 | 32162 ft | 434 kts | 197° |
| 2026-02-17 11:54 | 38.26643 | 141.21928 | 32167 ft | 433 kts | 197° |
| 2026-02-17 11:54 | 38.20650 | 141.20905 | 32167 ft | 434 kts | 197° |
| 2026-02-17 11:55 | 38.11664 | 141.19381 | 32168 ft | 433 kts | 197° |
| 2026-02-17 11:55 | 38.05681 | 141.18362 | 32169 ft | 434 kts | 197° |
| 2026-02-17 11:56 | 37.99728 | 141.17355 | 32170 ft | 434 kts | 197° |
| 2026-02-17 11:56 | 37.93761 | 141.16301 | 32159 ft | 427 kts | 202° |
| 2026-02-17 11:57 | 37.90944 | 141.15320 | 32181 ft | 416 kts | 207° |
| 2026-02-17 11:57 | 37.88177 | 141.14237 | 32177 ft | 415 kts | 207° |
| 2026-02-17 11:57 | 37.82650 | 141.12031 | 32166 ft | 417 kts | 207° |
| 2026-02-17 11:58 | 37.77102 | 141.09827 | 32163 ft | 418 kts | 207° |
| 2026-02-17 11:59 | 37.68775 | 141.06548 | 32161 ft | 417 kts | 207° |
| 2026-02-17 11:59 | 37.63275 | 141.04375 | 32156 ft | 417 kts | 207° |
| 2026-02-17 12:00 | 37.57727 | 141.02189 | 32154 ft | 417 kts | 207° |
| 2026-02-17 12:00 | 37.52180 | 141.00011 | 32149 ft | 417 kts | 207° |
| 2026-02-17 12:01 | 37.46635 | 140.97834 | 32150 ft | 417 kts | 207° |
| 2026-02-17 12:01 | 37.41083 | 140.95658 | 32138 ft | 417 kts | 207° |
| 2026-02-17 12:02 | 37.35537 | 140.93490 | 32114 ft | 418 kts | 208° |
| 2026-02-17 12:02 | 37.32764 | 140.92412 | 31734 ft | 420 kts | 207° |
| 2026-02-17 12:02 | 37.29973 | 140.91331 | 31114 ft | 419 kts | 207° |
| 2026-02-17 12:03 | 37.24423 | 140.89186 | 29883 ft | 415 kts | 206° |
| 2026-02-17 12:03 | 37.21663 | 140.88116 | 29284 ft | 412 kts | 206° |
| 2026-02-17 12:03 | 37.18930 | 140.87055 | 28741 ft | 409 kts | 206° |
| 2026-02-17 12:03 | 37.16250 | 140.86015 | 28190 ft | 408 kts | 206° |
| 2026-02-17 12:04 | 37.13542 | 140.84964 | 27584 ft | 407 kts | 206° |
| 2026-02-17 12:04 | 37.10842 | 140.83920 | 26982 ft | 406 kts | 206° |
| 2026-02-17 12:04 | 37.08103 | 140.82856 | 26384 ft | 418 kts | 205° |
| 2026-02-17 12:04 | 37.05325 | 140.81782 | 25761 ft | 415 kts | 205° |
| 2026-02-17 12:05 | 37.02564 | 140.80729 | 25168 ft | 411 kts | 205° |
| 2026-02-17 12:05 | 36.99837 | 140.79687 | 24585 ft | 406 kts | 205° |
| 2026-02-17 12:05 | 36.97312 | 140.78287 | 24201 ft | 386 kts | 218° |
| 2026-02-17 12:05 | 36.95287 | 140.76310 | 24123 ft | 363 kts | 230° |
| 2026-02-17 12:06 | 36.93905 | 140.73768 | 24085 ft | 340 kts | 252° |
| 2026-02-17 12:06 | 36.93590 | 140.70919 | 24043 ft | 328 kts | 272° |
| 2026-02-17 12:06 | 36.94149 | 140.68229 | 24014 ft | 322 kts | 287° |
| 2026-02-17 12:07 | 36.94108 | 140.63195 | 24028 ft | 289 kts | 240° |
| 2026-02-17 12:07 | 36.92616 | 140.61528 | 23974 ft | 296 kts | 213° |
| 2026-02-17 12:07 | 36.90553 | 140.61058 | 23905 ft | 314 kts | 185° |
| 2026-02-17 12:07 | 36.88434 | 140.61969 | 23791 ft | 337 kts | 156° |
| 2026-02-17 12:08 | 36.86776 | 140.64136 | 23630 ft | 358 kts | 126° |
| 2026-02-17 12:08 | 36.85821 | 140.67072 | 23229 ft | 375 kts | 119° |
| 2026-02-17 12:08 | 36.84305 | 140.69765 | 22603 ft | 387 kts | 147° |
| 2026-02-17 12:08 | 36.81978 | 140.71428 | 22082 ft | 389 kts | 172° |
| 2026-02-17 12:09 | 36.79321 | 140.71728 | 21638 ft | 382 kts | 196° |
| 2026-02-17 12:09 | 36.76763 | 140.70951 | 21043 ft | 374 kts | 205° |
| 2026-02-17 12:09 | 36.74349 | 140.69830 | 20269 ft | 367 kts | 208° |
| 2026-02-17 12:09 | 36.71973 | 140.68694 | 19481 ft | 366 kts | 206° |
| 2026-02-17 12:10 | 36.69553 | 140.67714 | 18691 ft | 365 kts | 203° |
| 2026-02-17 12:10 | 36.67107 | 140.66873 | 17917 ft | 367 kts | 202° |
| 2026-02-17 12:10 | 36.64650 | 140.66054 | 17129 ft | 373 kts | 201° |
| 2026-02-17 12:11 | 36.59652 | 140.64248 | 15921 ft | 372 kts | 202° |
| 2026-02-17 12:11 | 36.57148 | 140.63303 | 15395 ft | 379 kts | 202° |
| 2026-02-17 12:11 | 36.54619 | 140.62359 | 15165 ft | 383 kts | 201° |
| 2026-02-17 12:11 | 36.52035 | 140.61386 | 15144 ft | 388 kts | 202° |
| 2026-02-17 12:12 | 36.49482 | 140.60430 | 15136 ft | 380 kts | 200° |
| 2026-02-17 12:12 | 36.46808 | 140.60080 | 14898 ft | 397 kts | 181° |
| 2026-02-17 12:12 | 36.44071 | 140.60537 | 14646 ft | 394 kts | 177° |
| 2026-02-17 12:12 | 36.41379 | 140.61131 | 14362 ft | 392 kts | 174° |
| 2026-02-17 12:13 | 36.38692 | 140.61849 | 13835 ft | 394 kts | 172° |
| 2026-02-17 12:13 | 36.36038 | 140.62650 | 13333 ft | 390 kts | 171° |
| 2026-02-17 12:13 | 36.33414 | 140.63462 | 12833 ft | 387 kts | 171° |
| 2026-02-17 12:13 | 36.30851 | 140.64277 | 12339 ft | 385 kts | 169° |
| 2026-02-17 12:14 | 36.28284 | 140.65219 | 11843 ft | 383 kts | 167° |
| 2026-02-17 12:14 | 36.25755 | 140.66251 | 11338 ft | 381 kts | 165° |
| 2026-02-17 12:14 | 36.23272 | 140.67335 | 11031 ft | 374 kts | 164° |
| 2026-02-17 12:15 | 36.18377 | 140.69306 | 11024 ft | 382 kts | 168° |
| 2026-02-17 12:15 | 36.15791 | 140.70110 | 11008 ft | 377 kts | 170° |
| 2026-02-17 12:15 | 36.13258 | 140.70833 | 11007 ft | 372 kts | 171° |
| 2026-02-17 12:15 | 36.10719 | 140.71521 | 11006 ft | 374 kts | 171° |
| 2026-02-17 12:16 | 36.08174 | 140.72190 | 11003 ft | 374 kts | 172° |
| 2026-02-17 12:16 | 36.05654 | 140.72841 | 11005 ft | 374 kts | 172° |
| 2026-02-17 12:16 | 36.03101 | 140.73495 | 11003 ft | 374 kts | 172° |
| 2026-02-17 12:16 | 36.00550 | 140.74144 | 11000 ft | 373 kts | 172° |
| 2026-02-17 12:17 | 35.98004 | 140.74791 | 11000 ft | 374 kts | 172° |
| 2026-02-17 12:17 | 35.95443 | 140.75445 | 10999 ft | 375 kts | 172° |
| 2026-02-17 12:17 | 35.92882 | 140.76104 | 11001 ft | 376 kts | 172° |
| 2026-02-17 12:17 | 35.90333 | 140.76765 | 10981 ft | 369 kts | 172° |
| 2026-02-17 12:18 | 35.87874 | 140.77410 | 10977 ft | 355 kts | 172° |
| 2026-02-17 12:18 | 35.85478 | 140.78042 | 10636 ft | 349 kts | 172° |
| 2026-02-17 12:18 | 35.83138 | 140.78658 | 10261 ft | 339 kts | 172° |
| 2026-02-17 12:19 | 35.78627 | 140.79827 | 9563 ft | 322 kts | 172° |
| 2026-02-17 12:19 | 35.76464 | 140.80375 | 9310 ft | 312 kts | 172° |
| 2026-02-17 12:19 | 35.74367 | 140.80898 | 9054 ft | 302 kts | 172° |
| 2026-02-17 12:19 | 35.72340 | 140.81395 | 8820 ft | 293 kts | 172° |
| 2026-02-17 12:20 | 35.70365 | 140.81868 | 8612 ft | 284 kts | 173° |
| 2026-02-17 12:20 | 35.68432 | 140.82033 | 8375 ft | 275 kts | 184° |
| 2026-02-17 12:20 | 35.66536 | 140.81791 | 8007 ft | 272 kts | 191° |
| 2026-02-17 12:20 | 35.64687 | 140.81306 | 7628 ft | 271 kts | 195° |
| 2026-02-17 12:21 | 35.62897 | 140.80687 | 7249 ft | 270 kts | 198° |
| 2026-02-17 12:21 | 35.61113 | 140.79973 | 6877 ft | 269 kts | 199° |
| 2026-02-17 12:21 | 35.59351 | 140.79205 | 6503 ft | 268 kts | 200° |
| 2026-02-17 12:21 | 35.57611 | 140.78404 | 6131 ft | 267 kts | 200° |
| 2026-02-17 12:22 | 35.55874 | 140.77575 | 5754 ft | 267 kts | 201° |
| 2026-02-17 12:22 | 35.54155 | 140.76732 | 5376 ft | 266 kts | 201° |
| 2026-02-17 12:22 | 35.52498 | 140.75719 | 5013 ft | 267 kts | 214° |
| 2026-02-17 12:23 | 35.49976 | 140.72543 | 4985 ft | 257 kts | 232° |
| 2026-02-17 12:23 | 35.48971 | 140.70742 | 4982 ft | 255 kts | 236° |
| 2026-02-17 12:23 | 35.48052 | 140.68886 | 4982 ft | 255 kts | 238° |
| 2026-02-17 12:23 | 35.47407 | 140.66869 | 4965 ft | 253 kts | 265° |
| 2026-02-17 12:24 | 35.47695 | 140.64849 | 4943 ft | 237 kts | 297° |
| 2026-02-17 12:24 | 35.48651 | 140.63309 | 4979 ft | 219 kts | 312° |
| 2026-02-17 12:24 | 35.49681 | 140.61995 | 4986 ft | 205 kts | 314° |
| 2026-02-17 12:24 | 35.50650 | 140.60796 | 4987 ft | 190 kts | 314° |
| 2026-02-17 12:25 | 35.51567 | 140.59652 | 4982 ft | 181 kts | 314° |
| 2026-02-17 12:25 | 35.52440 | 140.58553 | 4971 ft | 181 kts | 315° |
| 2026-02-17 12:25 | 35.53394 | 140.57585 | 4969 ft | 176 kts | 324° |
| 2026-02-17 12:25 | 35.54424 | 140.56746 | 4983 ft | 178 kts | 328° |
| 2026-02-17 12:26 | 35.55471 | 140.55961 | 4996 ft | 178 kts | 328° |
| 2026-02-17 12:26 | 35.56537 | 140.55182 | 4989 ft | 176 kts | 329° |
| 2026-02-17 12:26 | 35.57610 | 140.54403 | 4857 ft | 183 kts | 329° |
| 2026-02-17 12:27 | 35.59734 | 140.52869 | 4383 ft | 173 kts | 330° |
| 2026-02-17 12:27 | 35.60769 | 140.52123 | 4149 ft | 172 kts | 331° |
| 2026-02-17 12:27 | 35.61799 | 140.51378 | 3920 ft | 171 kts | 331° |
| 2026-02-17 12:27 | 35.62820 | 140.50638 | 3697 ft | 170 kts | 332° |
| 2026-02-17 12:28 | 35.63836 | 140.49904 | 3473 ft | 168 kts | 332° |
| 2026-02-17 12:28 | 35.64828 | 140.49186 | 3254 ft | 167 kts | 333° |
| 2026-02-17 12:28 | 35.65828 | 140.48464 | 3031 ft | 166 kts | 333° |
| 2026-02-17 12:28 | 35.66823 | 140.47744 | 2802 ft | 165 kts | 333° |
| 2026-02-17 12:29 | 35.67802 | 140.47035 | 2587 ft | 162 kts | 333° |
| 2026-02-17 12:29 | 35.68775 | 140.46329 | 2381 ft | 161 kts | 333° |
| 2026-02-17 12:29 | 35.69740 | 140.45631 | 2164 ft | 159 kts | 332° |
| 2026-02-17 12:29 | 35.70690 | 140.44942 | 1958 ft | 159 kts | 332° |
| 2026-02-17 12:30 | 35.71645 | 140.44250 | 1734 ft | 158 kts | 332° |
| 2026-02-17 12:30 | 35.72589 | 140.43565 | 1531 ft | 157 kts | 332° |
| 2026-02-17 12:30 | 35.73533 | 140.42880 | 1326 ft | 157 kts | 330° |
| 2026-02-17 12:31 | 35.75345 | 140.41564 | 923 ft | 149 kts | 330° |
| 2026-02-17 12:31 | 35.75952 | 140.41126 | 788 ft | 150 kts | 330° |
| 2026-02-17 12:31 | 35.77123 | 140.40278 | 529 ft | 145 kts | 330° |
| 2026-02-17 12:31 | 35.77983 | 140.39655 | 337 ft | 142 kts | 331° |
| 2026-02-17 12:32 | 35.78553 | 140.39235 | 220 ft | 140 kts | 330° |
| 2026-02-17 12:32 | 35.79468 | 140.38569 | 143 ft | 74 kts | 329° |
| 2026-02-17 12:32 | 35.79748 | 140.38366 | 143 ft | 62 kts | 328° |
| 2026-02-17 12:32 | 35.79998 | 140.38176 | 145 ft | 27 kts | 322° |
| 2026-02-17 12:33 | 35.80095 | 140.38042 | 145 ft | 16 kts | 307° |
| 2026-02-17 12:33 | 35.80125 | 140.37986 | 144 ft | 0 kts | 294° |
| 2026-02-17 12:33 | 35.80132 | 140.37966 | 144 ft | 9 kts | 294° |
| 2026-02-17 12:33 | 35.80136 | 140.37894 | 143 ft | 9 kts | 244° |
| 2026-02-17 12:34 | 35.80085 | 140.37876 | 143 ft | 8 kts | 167° |
| 2026-02-17 12:34 | 35.80004 | 140.37926 | 143 ft | 14 kts | 151° |
| 2026-02-17 12:34 | 35.79922 | 140.37986 | 143 ft | 13 kts | 149° |
| 2026-02-17 12:35 | 35.79772 | 140.38095 | 143 ft | 12 kts | 149° |
| 2026-02-17 12:35 | 35.79704 | 140.38144 | 143 ft | 12 kts | 149° |
| 2026-02-17 12:35 | 35.79621 | 140.38204 | 143 ft | 14 kts | 149° |
| 2026-02-17 12:35 | 35.79542 | 140.38262 | 143 ft | 13 kts | 149° |
| 2026-02-17 12:36 | 35.79465 | 140.38315 | 143 ft | 12 kts | 150° |
| 2026-02-17 12:36 | 35.79395 | 140.38367 | 143 ft | 11 kts | 150° |
| 2026-02-17 12:36 | 35.79322 | 140.38418 | 143 ft | 13 kts | 150° |
| 2026-02-17 12:36 | 35.79244 | 140.38473 | 143 ft | 12 kts | 149° |
| 2026-02-17 12:37 | 35.79173 | 140.38526 | 143 ft | 12 kts | 149° |
| 2026-02-17 12:37 | 35.79106 | 140.38575 | 143 ft | 11 kts | 149° |
| 2026-02-17 12:37 | 35.79052 | 140.38636 | 143 ft | 11 kts | 121° |
| 2026-02-17 12:37 | 35.79012 | 140.38722 | 143 ft | 12 kts | 126° |
| 2026-02-17 12:38 | 35.78945 | 140.38792 | 143 ft | 13 kts | 149° |
| 2026-02-17 12:38 | 35.78865 | 140.38832 | 143 ft | 12 kts | 162° |
| 2026-02-17 12:38 | 35.78785 | 140.38850 | 143 ft | 11 kts | 181° |
| 2026-02-17 12:39 | 35.78633 | 140.38824 | 143 ft | 13 kts | 189° |
| 2026-02-17 12:39 | 35.78542 | 140.38809 | 143 ft | 13 kts | 187° |
| 2026-02-17 12:39 | 35.78455 | 140.38796 | 143 ft | 12 kts | 187° |
| 2026-02-17 12:39 | 35.78373 | 140.38785 | 143 ft | 12 kts | 186° |
| 2026-02-17 12:40 | 35.78300 | 140.38773 | 143 ft | 9 kts | 200° |
| 2026-02-17 12:40 | 35.78273 | 140.38706 | 143 ft | 9 kts | 266° |
| 2026-02-17 12:40 | 35.78242 | 140.38641 | 143 ft | 9 kts | 226° |
| 2026-02-17 12:40 | 35.78195 | 140.38614 | 143 ft | 8 kts | 154° |
| 2026-02-17 12:41 | 35.78165 | 140.38649 | 143 ft | 0 kts | 134° |